GCLA Información de aeropuertos

Información de pistas
Pista 01 Longitud 7218 ft Ancho 148 ft
Elevación 103 ft Umbral 0 ft Rumbo 359
Pista 19 Longitud 7218 ft Ancho 148 ft
Elevación 65 ft Umbral 0 ft Rumbo 179
Frecuencias
Tipo APP Nombre CANARIAS A Frequencia 126.1 MHZ
Tipo ATIS Nombre INFO Frequencia 118.6 MHZ
Tipo GND Nombre GND Frequencia 121.8 MHZ
Tipo TWR Nombre TWR Frequencia 118.9 MHZ
Radioayudas
Tipo DME Nombre La Palma Frequencia 112400 KHZ
Tipo NDB Nombre La Palma Frequencia 389 KHZ
Información meteorológica y NOTAM
ADDS - METARS form results

(1527 UTC 02 December 2021)
Data provider http://aviationweather.gov/metar/data/
 
METAR text: GCLA 021500Z 02014KT 9999 FEW029 SCT050 22/14 Q1024
Conditions at: GCLA (LA PALMA AIRPORT, ES) observed 1500 UTC 02 December 2021
Temperature: 22.0°C (72°F)
Dewpoint: 14.0°C (57°F) [RH = 60%]
Pressure (altimeter): 30.24 inches Hg (1024.0 mb)
Winds: from the NNE (20 degrees) at 16 MPH (14 knots; 7.2 m/s)
Visibility: 6 or more miles (10+ km)
Ceiling: at least 12,000 feet AGL
Clouds: few clouds at 2900 feet AGL
scattered clouds at 5000 feet AGL
Weather: no significant weather observed at this time

METAR text: GCLA 021430Z 02017KT 350V050 9999 FEW026 BKN050 21/15 Q1025
Conditions at: GCLA (LA PALMA AIRPORT, ES) observed 1430 UTC 02 December 2021
Temperature: 21.0°C (70°F)
Dewpoint: 15.0°C (59°F) [RH = 69%]
Pressure (altimeter): 30.27 inches Hg (1025.0 mb)
Winds: from the NNE (20 degrees) at 20 MPH (17 knots; 8.7 m/s)
Visibility: 6 or more miles (10+ km)
Ceiling: 5000 feet AGL
Clouds: few clouds at 2600 feet AGL
broken clouds at 5000 feet AGL
Weather: no significant weather observed at this time

Forecast for: GCLA (LA PALMA AIRPORT, ES)
Text: TAF GCLA 021400Z 0215/0315 02013KT 9999 FEW035 BKN050 TX22/0311Z TN19/0306Z
Forecast period: 1500 UTC 02 December 2021 to 1500 UTC 03 December 2021
Forecast type: FROM: standard forecast or significant change
Winds: from the NNE (20 degrees) at 15 MPH (13 knots; 6.7 m/s)
Visibility: 6 or more miles (10+ km)
Ceiling: 5000 feet AGL
Clouds: few clouds at 3500 feet AGL
broken clouds at 5000 feet AGL
Weather: no significant weather forecast for this period
Text: PROB40
Forecast period: 1500 to 2100 UTC 02 December 2021
Forecast type: TEMPORARY: The following changes expected for less than half the time period
Visibility: missing
Ceiling: unknown
Clouds: missing
Weather: RA  (moderate rain)